Time;durP1;ratioP1;P1;durP2;ratioP2;P2;SDS_P1;SDS_P2;PMS_P1;PMS_P2;Temp;Humidity;BMP_temperature;BMP_pressure;BME280_temperature;BME280_humidity;BME280_pressure;Samples;Min_cycle;Max_cycle;Signal;HPM_P1;HPM_P2
2023/06/14 00:01:13;;;;;;;3.77;1.55;;;19.10;99.90;;;;;;1907938;75;22203;-82
2023/06/14 00:04:04;;;;;;;5.58;1.47;;;19.10;99.90;;;;;;1888121;75;21171;-81
2023/06/14 00:06:57;;;;;;;5.17;1.52;;;19.10;99.90;;;;;;1889713;75;21116;-82
2023/06/14 00:09:48;;;;;;;2.17;1.55;;;19.00;99.90;;;;;;1889797;75;21157;-81
2023/06/14 00:12:40;;;;;;;3.00;1.02;;;19.00;99.90;;;;;;1885746;74;21098;-82
2023/06/14 00:15:32;;;;;;;3.02;1.20;;;19.10;99.90;;;;;;1904975;75;21055;-82
2023/06/14 00:18:24;;;;;;;2.72;1.50;;;19.00;99.90;;;;;;1908793;75;21090;-82
2023/06/14 00:21:16;;;;;;;4.62;1.30;;;19.00;99.90;;;;;;1918723;73;21193;-82
2023/06/14 00:24:08;;;;;;;2.65;1.32;;;19.00;99.90;;;;;;1892082;74;21110;-82
2023/06/14 00:27:00;;;;;;;3.42;1.50;;;18.90;99.90;;;;;;1888119;74;21263;-82
2023/06/14 00:29:51;;;;;;;2.22;1.42;;;19.00;99.90;;;;;;1891870;73;21177;-83
2023/06/14 00:35:22;;;;;;;3.75;1.60;;;18.90;99.90;;;;;;1937234;72;22170;-81
2023/06/14 00:38:13;;;;;;;1.62;1.17;;;18.90;99.90;;;;;;1903897;75;21178;-82
2023/06/14 00:41:04;;;;;;;4.22;1.60;;;18.90;99.90;;;;;;1893478;75;21155;-82
2023/06/14 00:43:56;;;;;;;2.33;1.70;;;18.90;99.90;;;;;;1906100;75;21259;-82
2023/06/14 00:49:27;;;;;;;3.47;1.42;;;18.80;99.90;;;;;;1927309;72;22125;-82
2023/06/14 00:52:18;;;;;;;2.47;1.67;;;18.90;99.90;;;;;;1905231;73;21227;-82
2023/06/14 00:55:10;;;;;;;5.67;1.30;;;19.00;99.90;;;;;;1902791;75;21643;-81
2023/06/14 00:58:02;;;;;;;7.03;1.60;;;19.00;99.90;;;;;;1904066;75;21067;-82
2023/06/14 01:00:57;;;;;;;3.37;1.27;;;18.90;99.90;;;;;;1887959;75;21101;-82
2023/06/14 01:09:25;;;;;;;5.28;1.60;;;18.90;99.90;;;;;;1937525;72;22226;-82
2023/06/14 01:14:58;;;;;;;2.55;1.60;;;18.90;99.90;;;;;;1939903;72;22310;-82
2023/06/14 01:20:30;;;;;;;2.00;1.67;;;18.90;99.90;;;;;;1929875;72;22186;-82
2023/06/14 01:23:24;;;;;;;3.40;1.40;;;18.90;99.90;;;;;;1880361;75;21094;-82
2023/06/14 01:26:15;;;;;;;2.40;1.37;;;18.80;99.90;;;;;;1875310;75;21441;-82
2023/06/14 01:29:08;;;;;;;4.15;1.40;;;18.80;99.90;;;;;;1875346;75;21107;-82
2023/06/14 01:32:00;;;;;;;2.52;1.60;;;18.80;99.90;;;;;;1877346;75;21160;-82
2023/06/14 01:34:53;;;;;;;5.95;1.70;;;18.80;99.90;;;;;;1882208;75;21054;-82
2023/06/14 01:37:47;;;;;;;2.12;1.40;;;18.70;99.90;;;;;;1894340;75;21106;-82
2023/06/14 01:40:40;;;;;;;2.90;1.30;;;18.70;99.90;;;;;;1899734;75;21036;-82
2023/06/14 01:43:32;;;;;;;1.87;1.47;;;18.70;99.90;;;;;;1905027;75;21156;-82
2023/06/14 01:46:23;;;;;;;3.08;1.65;;;18.70;99.90;;;;;;1877510;75;21101;-82
2023/06/14 01:49:16;;;;;;;3.72;1.60;;;18.70;99.90;;;;;;1896514;75;21111;-82
2023/06/14 01:54:47;;;;;;;1.32;1.00;;;18.80;99.90;;;;;;1960886;72;22992;-82
2023/06/14 02:00:24;;;;;;;2.15;0.90;;;18.80;99.90;;;;;;1946039;72;22149;-82
2023/06/14 02:03:19;;;;;;;3.10;1.00;;;18.80;99.90;;;;;;1897419;74;21164;-82
2023/06/14 02:06:10;;;;;;;2.30;1.00;;;18.80;99.90;;;;;;1896420;75;21138;-82
2023/06/14 02:09:03;;;;;;;4.60;1.30;;;18.70;99.90;;;;;;1906638;75;21105;-81
2023/06/14 02:11:54;;;;;;;2.12;1.05;;;18.60;99.90;;;;;;1904676;75;21122;-82
2023/06/14 02:14:45;;;;;;;4.33;1.10;;;18.70;99.90;;;;;;1904523;75;21364;-82
2023/06/14 02:17:37;;;;;;;2.65;1.25;;;18.70;99.90;;;;;;1911787;75;21045;-82
2023/06/14 02:20:29;;;;;;;1.10;1.00;;;18.70;99.90;;;;;;1896224;74;21117;-83
2023/06/14 02:23:20;;;;;;;2.90;1.10;;;18.70;99.90;;;;;;1885743;75;21150;-83
2023/06/14 02:26:12;;;;;;;3.25;1.25;;;18.70;99.90;;;;;;1899613;75;21031;-82
2023/06/14 02:29:03;;;;;;;3.70;1.25;;;18.70;99.90;;;;;;1914886;75;21594;-83
2023/06/14 02:34:37;;;;;;;1.75;1.20;;;18.80;99.90;;;;;;1931829;72;22153;-82
2023/06/14 02:40:13;;;;;;;2.65;1.75;;;18.80;99.90;;;;;;1954060;72;27915;-82
2023/06/14 02:43:05;;;;;;;6.83;1.70;;;19.00;99.90;;;;;;1913894;73;21134;-82
2023/06/14 02:45:56;;;;;;;2.80;1.50;;;18.90;99.90;;;;;;1907178;74;21086;-82
2023/06/14 02:48:47;;;;;;;5.78;1.45;;;18.90;99.90;;;;;;1926311;74;21090;-82
2023/06/14 02:51:39;;;;;;;4.67;1.60;;;18.80;99.90;;;;;;1926055;73;21175;-82
2023/06/14 02:54:30;;;;;;;3.15;1.30;;;18.80;99.90;;;;;;1917288;73;21171;-82
2023/06/14 02:57:23;;;;;;;5.05;1.20;;;18.80;99.90;;;;;;1922650;73;21169;-82
2023/06/14 03:00:16;;;;;;;2.47;1.62;;;18.80;99.90;;;;;;1917195;75;21097;-82
2023/06/14 03:05:50;;;;;;;4.25;1.50;;;18.80;99.90;;;;;;1950768;72;22187;-82
2023/06/14 03:08:44;;;;;;;2.25;1.60;;;18.80;99.90;;;;;;1910409;75;21172;-82
2023/06/14 03:14:18;;;;;;;2.55;1.30;;;18.70;99.90;;;;;;1943956;72;22134;-82
2023/06/14 03:19:49;;;;;;;4.25;1.32;;;18.80;99.90;;;;;;1935281;72;22154;-82
2023/06/14 03:25:21;;;;;;;4.70;1.17;;;18.90;99.90;;;;;;1930206;72;22165;-82
2023/06/14 03:28:13;;;;;;;4.45;1.52;;;18.90;99.90;;;;;;1900037;75;21059;-82
2023/06/14 03:31:04;;;;;;;4.30;1.55;;;18.90;99.90;;;;;;1909379;75;21122;-82
2023/06/14 03:33:56;;;;;;;2.80;1.47;;;18.90;99.90;;;;;;1908567;75;21220;-82
2023/06/14 03:36:47;;;;;;;5.62;1.62;;;18.70;99.90;;;;;;1913725;75;21193;-82
2023/06/14 03:39:45;;;;;;;3.55;1.50;;;18.60;99.90;;;;;;1895282;75;21140;-82
2023/06/14 03:45:15;;;;;;;2.37;1.50;;;18.60;99.90;;;;;;1955284;72;22251;-82
2023/06/14 03:48:08;;;;;;;4.28;1.70;;;18.60;99.90;;;;;;1932816;73;21097;-82
2023/06/14 03:51:18;;;;;;;3.65;1.80;;;18.60;99.90;;;;;;1916591;73;21110;-83
2023/06/14 03:54:10;;;;;;;3.47;1.55;;;18.50;99.90;;;;;;1921308;73;21083;-83
2023/06/14 03:59:45;;;;;;;5.70;1.90;;;18.60;99.90;;;;;;1952921;72;22221;-82
2023/06/14 04:05:26;;;;;;;3.37;1.57;;;18.70;99.90;;;;;;1928786;72;22238;-83
2023/06/14 04:08:19;;;;;;;3.92;1.42;;;18.70;99.90;;;;;;1891266;75;21115;-82
2023/06/14 04:11:11;;;;;;;3.25;1.50;;;18.70;99.90;;;;;;1873239;75;21156;-83
2023/06/14 04:14:05;;;;;;;2.75;1.32;;;18.80;99.90;;;;;;1891943;75;21083;-83
2023/06/14 04:16:56;;;;;;;2.58;1.20;;;18.80;99.90;;;;;;1893602;75;21171;-82
2023/06/14 04:19:48;;;;;;;3.58;1.37;;;18.70;99.90;;;;;;1875160;75;21043;-82
2023/06/14 04:25:18;;;;;;;3.37;1.35;;;18.80;99.90;;;;;;1940700;72;22331;-81
2023/06/14 04:28:15;;;;;;;3.15;1.40;;;18.80;99.90;;;;;;1898036;75;21188;-81
2023/06/14 04:31:08;;;;;;;2.67;1.50;;;18.80;99.90;;;;;;1897484;75;21558;-81
2023/06/14 04:33:59;;;;;;;1.67;1.30;;;18.90;99.90;;;;;;1899276;75;21160;-82
2023/06/14 04:39:30;;;;;;;2.22;1.50;;;18.90;99.90;;;;;;1925525;72;22236;-81
2023/06/14 04:42:25;;;;;;;2.58;1.40;;;18.90;99.90;;;;;;1900873;75;21169;-82
2023/06/14 04:45:16;;;;;;;4.47;1.40;;;18.90;99.90;;;;;;1846479;76;21227;-82
2023/06/14 04:48:10;;;;;;;5.55;1.62;;;18.90;99.90;;;;;;1851602;76;21121;-82
2023/06/14 04:51:03;;;;;;;6.97;1.80;;;18.90;99.90;;;;;;1890188;75;21089;-82
2023/06/14 04:53:56;;;;;;;4.05;1.65;;;18.90;99.90;;;;;;1891600;75;21172;-82
2023/06/14 04:56:48;;;;;;;2.70;1.67;;;18.90;99.90;;;;;;1900041;75;21093;-82
2023/06/14 04:59:39;;;;;;;3.37;1.52;;;18.90;99.90;;;;;;1897310;75;21102;-82
2023/06/14 05:02:31;;;;;;;4.67;1.72;;;19.10;99.90;;;;;;1909200;74;21163;-82
2023/06/14 05:05:24;;;;;;;3.17;1.90;;;19.10;99.90;;;;;;1891197;74;21070;-82
2023/06/14 05:08:16;;;;;;;4.70;2.00;;;19.00;99.90;;;;;;1905513;75;21151;-82
2023/06/14 05:13:49;;;;;;;6.42;2.77;;;18.90;99.90;;;;;;1939005;72;22287;-86
2023/06/14 05:19:20;;;;;;;5.53;2.25;;;18.90;99.90;;;;;;1960161;72;22177;-86
2023/06/14 05:24:50;;;;;;;2.67;1.95;;;18.90;99.90;;;;;;1945408;72;22290;-86
2023/06/14 05:30:21;;;;;;;2.90;2.17;;;19.00;99.90;;;;;;1961052;72;22174;-85
2023/06/14 05:33:13;;;;;;;4.62;2.27;;;19.00;99.90;;;;;;1917744;73;21641;-85
2023/06/14 05:36:05;;;;;;;5.37;2.50;;;19.10;99.90;;;;;;1921428;73;21228;-85
2023/06/14 05:38:59;;;;;;;7.55;2.80;;;19.10;99.90;;;;;;1939765;73;21125;-88
2023/06/14 05:44:32;;;;;;;6.75;2.85;;;19.00;99.90;;;;;;1926496;72;22223;-86
2023/06/14 05:47:23;;;;;;;3.90;2.40;;;19.00;99.90;;;;;;1895394;75;21049;-89
2023/06/14 05:50:15;;;;;;;5.05;2.75;;;19.10;99.90;;;;;;1889212;75;21105;-85
2023/06/14 05:55:44;;;;;;;3.15;2.37;;;19.20;99.90;;;;;;1912069;73;22231;-87
2023/06/14 05:58:35;;;;;;;4.72;2.80;;;19.20;99.90;;;;;;1898998;75;21204;-83
2023/06/14 06:01:27;;;;;;;4.05;2.30;;;19.20;99.90;;;;;;1886303;75;21170;-83
2023/06/14 06:04:19;;;;;;;4.85;2.33;;;19.30;99.90;;;;;;1915243;74;21175;-83
2023/06/14 06:07:10;;;;;;;4.42;2.80;;;19.30;99.90;;;;;;1903512;75;21125;-83
2023/06/14 06:10:01;;;;;;;5.80;3.02;;;19.30;99.90;;;;;;1906467;75;21113;-83
2023/06/14 06:12:54;;;;;;;5.30;2.90;;;19.30;99.90;;;;;;1895523;75;21064;-83
2023/06/14 06:15:46;;;;;;;3.85;2.47;;;19.40;99.90;;;;;;1905185;75;21109;-83
2023/06/14 06:18:37;;;;;;;5.08;3.08;;;19.40;99.90;;;;;;1906386;75;21110;-83
2023/06/14 06:21:29;;;;;;;4.47;2.67;;;19.40;99.90;;;;;;1903465;75;21128;-83
2023/06/14 06:29:43;;;;;;;5.12;3.55;;;19.40;99.90;;;;;;1958160;72;22672;-82
2023/06/14 06:32:34;;;;;;;3.47;3.17;;;19.40;99.90;;;;;;1925569;73;21161;-82
2023/06/14 06:35:25;;;;;;;4.37;3.58;;;19.50;99.90;;;;;;1921020;73;21091;-82
2023/06/14 06:40:57;;;;;;;4.30;3.72;;;19.80;99.90;;;;;;1934383;72;22199;-83
2023/06/14 06:43:49;;;;;;;8.38;4.47;;;19.80;99.90;;;;;;1912012;74;21495;-83
2023/06/14 06:49:20;;;;;;;5.15;3.58;;;20.00;99.90;;;;;;1941362;72;22265;-82
2023/06/14 06:52:11;;;;;;;4.67;4.10;;;20.20;99.90;;;;;;1891667;75;21133;-83
2023/06/14 06:55:08;;;;;;;5.12;3.90;;;20.40;99.90;;;;;;1901549;75;21056;-83
2023/06/14 06:58:05;;;;;;;4.72;3.92;;;20.50;99.90;;;;;;1902300;75;21109;-83
2023/06/14 07:00:57;;;;;;;6.55;3.75;;;20.50;99.90;;;;;;1893748;75;21098;-83
2023/06/14 07:03:56;;;;;;;4.22;3.83;;;20.50;99.90;;;;;;1901548;75;21220;-83
2023/06/14 07:09:28;;;;;;;5.28;4.00;;;20.50;99.90;;;;;;1935855;72;22237;-82
2023/06/14 07:12:19;;;;;;;7.67;4.40;;;20.60;99.90;;;;;;1906047;75;21473;-82
2023/06/14 07:17:59;;;;;;;5.75;4.65;;;20.60;99.90;;;;;;1946903;72;22263;-82
2023/06/14 07:20:51;;;;;;;4.67;3.65;;;20.70;99.90;;;;;;1929894;73;21155;-83
2023/06/14 07:23:43;;;;;;;5.87;3.60;;;20.80;99.90;;;;;;1869349;76;21110;-83
2023/06/14 07:26:35;;;;;;;8.50;3.87;;;20.70;99.90;;;;;;1919198;73;21173;-83
2023/06/14 07:32:31;;;;;;;5.00;3.95;;;20.80;99.90;;;;;;1968600;72;22205;-83
2023/06/14 07:35:23;;;;;;;4.10;3.70;;;20.80;99.90;;;;;;1920988;73;21157;-85
2023/06/14 07:38:14;;;;;;;5.33;3.47;;;20.80;99.90;;;;;;1930163;73;21066;-83
2023/06/14 07:41:06;;;;;;;5.47;3.52;;;20.80;99.90;;;;;;1916792;75;21186;-83
2023/06/14 07:49:20;;;;;;;4.05;3.30;;;20.80;99.90;;;;;;1948694;72;22303;-82
2023/06/14 07:54:50;;;;;;;4.45;2.90;;;20.90;99.90;;;;;;1939553;72;22172;-82
2023/06/14 07:57:42;;;;;;;6.28;3.87;;;20.80;99.90;;;;;;1896715;75;21285;-82
2023/06/14 08:00:35;;;;;;;3.30;2.85;;;20.80;99.90;;;;;;1906506;75;21248;-83
2023/06/14 08:03:33;;;;;;;3.90;2.85;;;20.70;99.90;;;;;;1903336;75;21122;-83
2023/06/14 08:06:24;;;;;;;3.40;2.60;;;20.70;99.90;;;;;;1895617;75;21395;-82
2023/06/14 08:11:56;;;;;;;4.58;2.80;;;20.90;99.90;;;;;;1938128;72;22338;-82
2023/06/14 08:14:47;;;;;;;2.70;2.50;;;21.00;99.90;;;;;;1942562;73;21654;-81
2023/06/14 08:20:21;;;;;;;4.22;2.60;;;21.10;99.90;;;;;;1954547;72;22195;-82
2023/06/14 08:23:13;;;;;;;2.55;2.35;;;20.90;99.90;;;;;;1902871;75;21106;-82
2023/06/14 08:26:08;;;;;;;2.47;2.27;;;21.00;99.90;;;;;;1892084;75;21133;-84
2023/06/14 08:34:23;;;;;;;3.02;2.33;;;21.20;99.90;;;;;;1934865;72;22170;-82
2023/06/14 08:37:15;;;;;;;2.77;2.27;;;21.20;99.90;;;;;;1905309;75;21667;-82
2023/06/14 08:40:12;;;;;;;7.42;3.42;;;21.30;99.90;;;;;;1884298;75;21102;-82
2023/06/14 08:43:03;;;;;;;3.72;2.37;;;21.40;99.90;;;;;;1898528;75;21098;-82
2023/06/14 08:48:34;;;;;;;4.92;2.37;;;21.40;99.90;;;;;;1937888;72;22652;-82
2023/06/14 08:51:33;;;;;;;5.55;2.42;;;21.60;99.90;;;;;;1927001;73;21097;-83
2023/06/14 08:54:21;;;;;;;3.27;2.20;;;21.60;99.90;;;;;;1927335;73;21596;-83
2023/06/14 08:57:15;;;;;;;4.10;2.05;;;21.70;99.90;;;;;;1922431;73;21596;-82
2023/06/14 09:00:11;;;;;;;4.28;1.98;;;21.80;99.90;;;;;;1937781;73;21149;-82
2023/06/14 09:05:42;;;;;;;2.85;2.02;;;22.10;99.90;;;;;;1926324;72;22263;-85
2023/06/14 09:08:34;;;;;;;2.52;1.90;;;22.10;99.90;;;;;;1902611;75;21117;-84
2023/06/14 09:11:26;;;;;;;2.98;2.30;;;22.10;99.90;;;;;;1916957;75;21102;-84
2023/06/14 09:14:19;;;;;;;5.08;2.62;;;22.20;99.90;;;;;;1901372;75;21222;-82
2023/06/14 09:19:56;;;;;;;3.62;2.17;;;22.50;99.90;;;;;;1928887;72;22188;-82
2023/06/14 09:22:47;;;;;;;4.97;2.15;;;22.40;99.90;;;;;;1904444;74;21093;-82
2023/06/14 09:25:46;;;;;;;2.17;1.95;;;22.50;99.90;;;;;;1884256;75;21142;-82
2023/06/14 09:28:39;;;;;;;2.87;2.00;;;22.30;99.90;;;;;;1905260;75;21129;-83
2023/06/14 09:31:32;;;;;;;1.72;1.60;;;22.40;99.90;;;;;;1885107;75;21096;-83
2023/06/14 09:34:23;;;;;;;2.80;1.47;;;22.60;99.90;;;;;;1907057;75;21059;-83
2023/06/14 09:37:16;;;;;;;1.40;1.30;;;22.60;99.90;;;;;;1881720;75;21062;-83
2023/06/14 09:40:09;;;;;;;1.45;1.32;;;22.70;99.90;;;;;;1874782;76;21105;-82
2023/06/14 09:43:01;;;;;;;1.52;1.32;;;22.80;99.90;;;;;;1910398;75;21152;-83
2023/06/14 09:45:55;;;;;;;1.47;1.37;;;22.90;99.90;;;;;;1893261;74;21168;-83
2023/06/14 09:51:32;;;;;;;1.80;1.60;;;23.00;99.90;;;;;;1957921;72;22227;-82
2023/06/14 09:54:25;;;;;;;1.70;1.57;;;23.10;99.90;;;;;;1940170;73;21068;-82
2023/06/14 09:57:18;;;;;;;2.12;1.60;;;23.10;99.90;;;;;;1921782;73;21114;-82
2023/06/14 10:00:16;;;;;;;2.52;1.67;;;23.20;99.90;;;;;;1922210;73;21283;-82
2023/06/14 10:05:53;;;;;;;3.83;1.62;;;23.50;99.90;;;;;;1937697;72;22146;-82
2023/06/14 10:08:46;;;;;;;3.55;1.80;;;23.50;99.90;;;;;;1893871;75;21108;-82
2023/06/14 10:11:43;;;;;;;2.65;1.70;;;23.60;99.90;;;;;;1887326;75;21146;-82
2023/06/14 10:14:33;;;;;;;3.50;2.10;;;23.70;99.90;;;;;;1872610;75;21156;-82
2023/06/14 10:20:21;;;;;;;7.08;1.90;;;23.80;99.90;;;;;;1917127;72;22693;-82
2023/06/14 10:23:15;;;;;;;2.22;1.90;;;23.90;99.90;;;;;;1890274;73;21130;-83
2023/06/14 10:26:06;;;;;;;3.55;2.17;;;24.00;99.90;;;;;;1898995;74;21139;-83
2023/06/14 10:29:01;;;;;;;3.02;2.00;;;24.10;99.90;;;;;;1915200;73;21204;-83
2023/06/14 10:34:31;;;;;;;5.17;2.27;;;24.30;99.90;;;;;;1934716;72;22162;-81
2023/06/14 10:37:24;;;;;;;3.40;2.22;;;24.30;99.90;;;;;;1900022;75;21676;-82
2023/06/14 10:40:32;;;;;;;2.00;1.80;;;24.20;99.90;;;;;;1884278;75;21571;-82
2023/06/14 10:43:25;;;;;;;2.45;2.00;;;24.20;99.90;;;;;;1891034;75;21094;-82
2023/06/14 10:46:18;;;;;;;2.65;2.17;;;24.40;99.90;;;;;;1906230;75;21094;-82
2023/06/14 10:49:09;;;;;;;5.78;3.47;;;24.60;99.90;;;;;;1901658;75;21666;-82
2023/06/14 10:52:00;;;;;;;4.45;2.50;;;24.80;99.90;;;;;;1909700;75;21102;-82
2023/06/14 10:55:11;;;;;;;2.72;1.98;;;24.90;99.90;;;;;;1884058;75;21145;-82
2023/06/14 11:00:44;;;;;;;3.42;2.30;;;24.90;99.90;;;;;;1930590;72;22290;-83
2023/06/14 11:03:50;;;;;;;3.08;2.40;;;25.10;99.90;;;;;;1903973;75;21372;-82
2023/06/14 11:06:53;;;;;;;3.15;2.40;;;25.10;99.90;;;;;;1916876;75;21151;-82
2023/06/14 11:09:55;;;;;;;2.60;2.25;;;25.20;99.90;;;;;;1899595;75;21137;-82
2023/06/14 11:12:48;;;;;;;2.40;2.20;;;25.50;99.90;;;;;;1899020;75;21110;-82
2023/06/14 11:15:41;;;;;;;2.50;2.30;;;25.70;99.90;;;;;;1884517;75;21136;-82
2023/06/14 11:18:32;;;;;;;3.12;2.62;;;25.40;99.90;;;;;;1906191;75;21183;-83
2023/06/14 11:21:30;;;;;;;2.45;2.25;;;25.30;99.90;;;;;;1905817;75;21106;-82
2023/06/14 11:24:18;;;;;;;3.10;2.60;;;25.30;99.90;;;;;;1900191;75;21059;-82
2023/06/14 11:27:11;;;;;;;2.77;2.37;;;25.20;99.90;;;;;;1894061;75;21043;-82
2023/06/14 11:30:02;;;;;;;2.50;2.30;;;25.10;99.90;;;;;;1889946;75;21164;-82
2023/06/14 11:32:56;;;;;;;4.40;2.85;;;25.20;99.90;;;;;;1894958;75;21051;-82
2023/06/14 11:35:48;;;;;;;3.10;2.33;;;25.50;99.90;;;;;;1898357;75;21247;-83
2023/06/14 11:38:40;;;;;;;2.70;2.50;;;25.50;99.90;;;;;;1896109;75;21121;-82
2023/06/14 11:41:43;;;;;;;2.90;2.60;;;25.50;99.90;;;;;;1894077;75;21094;-81
2023/06/14 11:44:35;;;;;;;4.22;2.80;;;25.50;99.90;;;;;;1912181;75;21249;-82
2023/06/14 11:47:27;;;;;;;3.10;2.40;;;25.70;99.90;;;;;;1883055;75;21136;-81
2023/06/14 11:50:19;;;;;;;5.80;3.05;;;25.80;99.90;;;;;;1899998;75;21099;-83
2023/06/14 11:53:13;;;;;;;3.92;2.98;;;26.00;99.90;;;;;;1894838;75;21162;-82
2023/06/14 11:56:05;;;;;;;4.75;2.52;;;25.90;99.90;;;;;;1887548;75;21285;-81
2023/06/14 11:58:57;;;;;;;3.75;2.60;;;25.90;99.90;;;;;;1885071;75;21176;-82
2023/06/14 12:01:50;;;;;;;3.95;2.75;;;25.90;99.90;;;;;;1861774;76;21150;-83
2023/06/14 12:04:44;;;;;;;5.25;2.50;;;26.10;99.90;;;;;;1861296;76;21117;-82
2023/06/14 12:07:35;;;;;;;5.10;2.90;;;26.10;99.90;;;;;;1858077;76;21558;-80
2023/06/14 12:10:26;;;;;;;2.95;2.60;;;26.10;99.90;;;;;;1874365;76;21186;-80
2023/06/14 12:13:20;;;;;;;5.40;3.00;;;26.20;99.90;;;;;;1868788;76;21144;-81
2023/06/14 12:16:11;;;;;;;3.30;2.62;;;26.20;99.90;;;;;;1863765;76;21134;-81
2023/06/14 12:19:11;;;;;;;4.87;3.00;;;26.30;99.90;;;;;;1858494;76;21108;-82
2023/06/14 12:22:04;;;;;;;6.65;3.00;;;26.30;99.90;;;;;;1857815;76;21233;-82
2023/06/14 12:27:36;;;;;;;3.98;3.00;;;26.20;99.90;;;;;;1933408;72;23055;-82
2023/06/14 12:30:27;;;;;;;3.65;3.17;;;26.30;99.90;;;;;;1896400;75;21628;-81
2023/06/14 12:33:18;;;;;;;3.90;2.98;;;26.40;99.90;;;;;;1909728;75;21129;-83
2023/06/14 12:36:11;;;;;;;3.90;3.08;;;26.60;99.90;;;;;;1906366;75;21106;-82
2023/06/14 12:39:04;;;;;;;3.75;2.60;;;26.80;99.90;;;;;;1902839;75;21103;-81
2023/06/14 12:41:55;;;;;;;2.92;2.60;;;26.90;99.90;;;;;;1897380;75;21109;-82
2023/06/14 12:44:46;;;;;;;2.90;2.60;;;26.80;97.90;;;;;;1894845;75;21102;-81
2023/06/14 12:47:38;;;;;;;3.12;2.80;;;26.80;97.20;;;;;;1895275;75;21110;-82
2023/06/14 12:50:30;;;;;;;3.40;3.10;;;27.00;97.30;;;;;;1896878;75;21527;-82
2023/06/14 12:53:21;;;;;;;4.30;2.77;;;27.10;96.40;;;;;;1898841;75;21164;-82
2023/06/14 12:56:13;;;;;;;5.15;2.83;;;27.20;96.80;;;;;;1894899;75;21172;-82
2023/06/14 12:59:05;;;;;;;4.42;2.87;;;27.20;96.70;;;;;;1890308;75;21570;-81
2023/06/14 13:01:57;;;;;;;3.77;2.70;;;27.10;95.00;;;;;;1905873;75;21086;-82
2023/06/14 13:04:49;;;;;;;4.03;2.90;;;27.20;94.60;;;;;;1900050;75;21162;-81
2023/06/14 13:07:41;;;;;;;3.77;2.87;;;27.20;95.30;;;;;;1895636;75;21480;-82
2023/06/14 13:10:32;;;;;;;4.62;3.20;;;27.40;99.80;;;;;;1888589;75;21106;-82
2023/06/14 13:13:25;;;;;;;4.47;3.30;;;27.40;97.50;;;;;;1906210;75;21143;-81
2023/06/14 13:16:16;;;;;;;3.35;3.05;;;27.50;93.10;;;;;;1902380;75;21099;-83
2023/06/14 13:19:08;;;;;;;3.70;3.17;;;27.40;94.00;;;;;;1883840;75;21187;-81
2023/06/14 13:22:00;;;;;;;5.75;3.15;;;27.50;94.60;;;;;;1914110;75;21460;-82
2023/06/14 13:24:52;;;;;;;3.25;2.95;;;27.50;95.70;;;;;;1894772;75;21334;-83
2023/06/14 13:27:43;;;;;;;3.65;2.98;;;27.50;96.00;;;;;;1907488;74;21581;-82
2023/06/14 13:30:35;;;;;;;3.20;2.90;;;27.50;96.40;;;;;;1914541;74;21196;-83
2023/06/14 13:33:27;;;;;;;3.62;3.00;;;27.80;99.90;;;;;;1901281;74;21086;-83
2023/06/14 13:36:19;;;;;;;3.60;2.85;;;27.80;99.90;;;;;;1922228;74;21549;-83
2023/06/14 13:39:11;;;;;;;3.52;3.22;;;28.00;97.00;;;;;;1920776;74;21403;-83
2023/06/14 13:42:03;;;;;;;3.10;2.87;;;27.90;96.80;;;;;;1915465;74;21139;-83
2023/06/14 13:44:54;;;;;;;4.78;2.95;;;28.20;97.30;;;;;;1910295;74;21117;-81
2023/06/14 13:47:48;;;;;;;3.72;3.35;;;28.40;97.00;;;;;;1903871;74;21613;-83
2023/06/14 13:50:40;;;;;;;3.30;3.00;;;28.50;97.50;;;;;;1920765;74;21142;-83
2023/06/14 13:53:32;;;;;;;3.75;3.40;;;28.60;96.80;;;;;;1898747;75;21187;-83
2023/06/14 13:56:24;;;;;;;4.42;3.15;;;28.80;97.50;;;;;;1912383;74;21123;-82
2023/06/14 13:59:16;;;;;;;4.62;3.40;;;28.90;97.50;;;;;;1910202;74;21055;-81
2023/06/14 14:02:08;;;;;;;5.70;3.35;;;28.80;98.90;;;;;;1929567;74;21192;-82
2023/06/14 14:05:00;;;;;;;4.80;2.95;;;28.70;99.00;;;;;;1919107;74;21055;-82
2023/06/14 14:07:52;;;;;;;4.30;3.50;;;28.90;98.80;;;;;;1914047;74;21634;-83
2023/06/14 14:10:44;;;;;;;4.35;3.95;;;29.00;98.50;;;;;;1910293;74;21146;-82
2023/06/14 14:13:36;;;;;;;8.65;3.83;;;29.10;99.60;;;;;;1905983;74;21483;-82
2023/06/14 14:16:28;;;;;;;4.37;3.45;;;29.30;99.90;;;;;;1920335;74;21098;-83
2023/06/14 14:19:20;;;;;;;4.40;3.65;;;29.10;99.90;;;;;;1916066;74;21562;-83
2023/06/14 14:22:11;;;;;;;5.05;3.50;;;28.50;99.90;;;;;;1910435;74;21170;-84
2023/06/14 14:25:03;;;;;;;5.58;3.67;;;28.80;99.90;;;;;;1910269;74;21090;-82
2023/06/14 14:27:55;;;;;;;3.50;3.20;;;28.90;99.90;;;;;;1910118;74;21526;-83
2023/06/14 14:30:47;;;;;;;4.65;3.35;;;28.80;99.90;;;;;;1915186;74;21109;-83
2023/06/14 14:33:38;;;;;;;3.95;3.30;;;29.30;99.90;;;;;;1911017;74;21106;-83
2023/06/14 14:36:30;;;;;;;3.60;3.30;;;29.20;99.90;;;;;;1909929;74;21098;-83
2023/06/14 14:39:21;;;;;;;3.70;2.95;;;29.60;99.90;;;;;;1909894;74;21134;-81
2023/06/14 14:42:13;;;;;;;3.92;3.58;;;29.90;98.90;;;;;;1913849;74;21094;-82
2023/06/14 14:45:06;;;;;;;4.33;3.37;;;29.80;98.40;;;;;;1899180;75;21120;-82
2023/06/14 14:47:58;;;;;;;3.62;3.30;;;30.00;97.90;;;;;;1920965;74;21098;-82
2023/06/14 14:50:50;;;;;;;3.60;3.27;;;30.00;98.00;;;;;;1921486;74;21095;-82
2023/06/14 14:53:41;;;;;;;3.45;3.15;;;30.20;97.30;;;;;;1919094;74;21097;-83
2023/06/14 14:56:34;;;;;;;5.55;3.67;;;29.30;97.80;;;;;;1914533;74;21109;-83
2023/06/14 14:59:26;;;;;;;3.85;3.30;;;29.50;96.80;;;;;;1909877;74;21208;-83
2023/06/14 15:02:17;;;;;;;4.62;3.47;;;30.00;95.60;;;;;;1909991;74;21186;-85
2023/06/14 15:05:10;;;;;;;3.92;3.50;;;29.90;94.70;;;;;;1910314;74;21175;-84
2023/06/14 15:08:01;;;;;;;4.97;3.50;;;29.80;94.60;;;;;;1915319;74;21130;-84
2023/06/14 15:10:53;;;;;;;3.50;3.20;;;30.00;93.80;;;;;;1910628;74;21097;-82
2023/06/14 15:13:44;;;;;;;5.00;3.10;;;29.90;93.50;;;;;;1909805;74;21074;-84
2023/06/14 15:16:36;;;;;;;5.30;3.22;;;30.30;92.50;;;;;;1910359;74;21093;-82
2023/06/14 15:19:27;;;;;;;4.83;3.35;;;30.60;92.20;;;;;;1914286;74;21141;-84
2023/06/14 15:22:19;;;;;;;3.90;3.30;;;30.90;91.60;;;;;;1911737;74;21078;-84
2023/06/14 15:25:11;;;;;;;3.50;3.20;;;30.90;91.00;;;;;;1902983;74;21076;-82
2023/06/14 15:28:06;;;;;;;3.58;3.25;;;31.00;89.50;;;;;;1901203;74;21097;-82
2023/06/14 15:30:56;;;;;;;4.35;3.30;;;31.30;86.60;;;;;;1913204;74;21137;-83
2023/06/14 15:33:48;;;;;;;3.55;3.25;;;31.00;85.70;;;;;;1912815;74;21559;-83
2023/06/14 15:36:39;;;;;;;3.50;3.12;;;31.30;83.70;;;;;;1909522;74;21187;-83
2023/06/14 15:39:32;;;;;;;4.17;3.10;;;31.50;84.60;;;;;;1910012;74;21093;-83
2023/06/14 15:42:23;;;;;;;3.92;3.35;;;31.50;83.00;;;;;;1911542;74;21086;-83
2023/06/14 15:45:15;;;;;;;4.45;3.40;;;31.60;81.20;;;;;;1899195;75;21148;-83
2023/06/14 15:48:07;;;;;;;3.92;3.33;;;31.10;81.20;;;;;;1921254;74;21154;-82
2023/06/14 15:50:59;;;;;;;3.92;3.47;;;31.30;80.70;;;;;;1921392;74;21149;-82
2023/06/14 15:53:52;;;;;;;3.35;3.05;;;31.10;80.90;;;;;;1920789;74;21120;-83
2023/06/14 15:56:43;;;;;;;5.45;2.95;;;31.30;79.30;;;;;;1915966;74;21113;-84
2023/06/14 15:59:35;;;;;;;3.60;3.27;;;31.00;78.80;;;;;;1910122;74;21050;-83
2023/06/14 16:02:26;;;;;;;3.62;3.17;;;31.30;78.50;;;;;;1926879;74;21593;-83
2023/06/14 16:05:18;;;;;;;3.60;3.30;;;31.50;79.00;;;;;;1921179;74;21102;-83
2023/06/14 16:08:10;;;;;;;3.92;3.52;;;31.70;77.60;;;;;;1915977;74;21272;-83
2023/06/14 16:11:01;;;;;;;4.00;3.20;;;31.80;75.80;;;;;;1912397;74;21091;-84
2023/06/14 16:13:55;;;;;;;4.72;3.50;;;31.10;75.80;;;;;;1909978;74;21106;-84
2023/06/14 16:16:49;;;;;;;4.28;3.20;;;31.60;73.60;;;;;;1909836;74;21155;-83
2023/06/14 16:19:41;;;;;;;3.55;3.10;;;31.70;74.70;;;;;;1911432;74;21537;-83
2023/06/14 16:22:33;;;;;;;4.58;3.33;;;31.70;71.80;;;;;;1899085;75;21098;-83
2023/06/14 16:25:24;;;;;;;4.55;3.17;;;31.20;72.90;;;;;;1931261;74;21054;-84
2023/06/14 16:28:17;;;;;;;3.77;3.40;;;31.10;69.90;;;;;;1921737;74;21650;-83
2023/06/14 16:33:54;;;;;;;3.37;3.08;;;31.00;68.40;;;;;;1957708;72;22150;-84
2023/06/14 16:36:43;;;;;;;4.78;3.20;;;31.40;67.20;;;;;;1894889;75;21176;-84
2023/06/14 16:39:34;;;;;;;3.58;3.20;;;31.40;66.10;;;;;;1894536;75;21094;-83
2023/06/14 16:42:26;;;;;;;4.20;3.00;;;31.60;66.10;;;;;;1896071;75;21125;-85
2023/06/14 16:45:18;;;;;;;5.50;3.50;;;31.80;65.60;;;;;;1899791;75;21099;-83
2023/06/14 16:48:09;;;;;;;5.17;3.30;;;31.80;63.30;;;;;;1906490;75;21066;-84
2023/06/14 16:51:02;;;;;;;4.67;3.35;;;31.40;63.90;;;;;;1905908;75;21109;-84
2023/06/14 16:53:55;;;;;;;3.87;3.20;;;31.40;62.40;;;;;;1905816;75;21094;-83
2023/06/14 16:56:46;;;;;;;3.60;3.30;;;31.50;61.20;;;;;;1899391;75;21063;-83
2023/06/14 16:59:39;;;;;;;4.22;3.10;;;31.70;60.90;;;;;;1884050;76;21110;-84
2023/06/14 17:02:30;;;;;;;3.20;2.90;;;31.70;61.10;;;;;;1906487;75;21109;-84
2023/06/14 17:05:22;;;;;;;3.27;2.85;;;31.50;60.00;;;;;;1906117;75;21152;-84
2023/06/14 17:08:13;;;;;;;4.42;3.00;;;31.50;59.00;;;;;;1902989;75;21143;-83
2023/06/14 17:11:08;;;;;;;3.92;3.08;;;31.50;58.50;;;;;;1898039;75;21088;-84